• Join FlightAware (Why Join?)
  • Login
  • US Flag 
08:18AM EST


 

Airport Tracker/Info


-or-


 

Live Flight TrackerFlight Track Log ✈ N777NC ✈ 28-Jun-2013 ✈ KCAE - KATL

Flight Track Log - Related Links

Times and Time Zones

All times are in EDT time to prevent confusion due to time zone crossing. See the N777NC flight status page for this flight to view local times or setup timezone preferences in your user account.

Time Position Orientation Groundspeed Altitude Reporting Facility
EDT Latitude Longitude Course Direction KTS MPH feet Rate Location/Type
07:33PM 33.9278 -81.2306 259° West 211 243 3,000  Level Jacksonville Center
07:34PM 33.8908 -81.2864 231° Southwest 211 243 4,700 2,100 Climbing Jacksonville Center
07:35PM 33.8436 -81.3522 229° Southwest 238 274 7,300 2,400 Climbing Jacksonville Center
07:36PM 33.8162 -81.2875 261° West  Level FlightAware Approximate
07:36PM 33.7986 -81.4256 234° Southwest 256 295 9,600  Level Jacksonville Center
07:37PM 33.8050 -81.3771 261° West  Level FlightAware Approximate
07:38PM 33.7918 -81.4662 259° West  Level FlightAware Approximate
07:38PM 33.7575 -81.6053 255° West 300 345 12,400  Level Atlanta Center
07:39PM 33.7770 -81.5549 259° West  Level FlightAware Approximate
07:39PM 33.7431 -81.7181 261° West 327 376 15,500  Level Atlanta Center
07:40PM 33.7347 -81.8281 265° West 339 390 16,900 1,680 Climbing Atlanta Center
07:41PM 33.7283 -81.9481 266° West 352 405 18,900 1,800 Climbing Atlanta Center
07:42PM 33.7242 -82.0706 268° West 363 418 20,600 1,560 Climbing Atlanta Center
07:43PM 33.6844 -82.2014 250° West 374 430 22,100 660 Climbing Atlanta Center
07:44PM 33.6383 -82.3272 246° West 401 461 22,000 -60 Descending Atlanta Center
07:45PM 33.5856 -82.4503 243° Southwest 409 471 22,000  Level Atlanta Center
07:46PM 33.5308 -82.5736 242° Southwest 414 476 22,000  Level Atlanta Center
07:47PM 33.4822 -82.6939 244° Southwest 414 476 22,000  Level Atlanta Center
07:48PM 33.4269 -82.8167 242° Southwest 414 476 22,000  Level Atlanta Center
07:49PM 33.3781 -82.9269 242° Southwest 414 476 22,000 -540 Level Atlanta Center
07:50PM 33.3206 -83.0519 241° Southwest 427 491 21,000 -1,500 Descending Atlanta Center
07:51PM 33.2736 -83.1642 243° Southwest 405 466 19,100 -2,520 Descending Atlanta Center
07:52PM 33.2325 -83.2739 246° West 375 432 16,000 -3,000 Descending Atlanta Center
07:53PM 33.1850 -83.3836 243° Southwest 365 420 13,200 -1,860 Descending Atlanta Center
07:54PM 33.1481 -83.4806 246° West 345 397 12,300 -600 Descending Atlanta Center
07:55PM 33.1025 -83.5825 242° Southwest 327 376 12,000 -180 Descending Atlanta Center
07:56PM 33.1217 -83.6594 287° West 249 287 12,000  Level Atlanta Center
07:57PM 33.1667 -83.7000 323° Northwest 276 318 12,100 60 Climbing Atlanta TRACON
07:58PM 33.2167 -83.7500 320° Northwest 275 316 12,100 -600 Level Atlanta TRACON
07:59PM 33.2833 -83.8167 320° Northwest 260 299 11,000 -1,560 Descending Atlanta TRACON
08:00PM 33.3475 -83.8922 315° West 264 304 8,500 -1,380 Descending Atlanta Center
08:01PM 33.3850 -83.9642 302° West 257 296 7,900 -540 Descending Atlanta Center
08:02PM 33.4228 -84.0314 304° West 250 288 7,500 -1,020 Descending Atlanta Center
08:03PM 33.4875 -84.0636 337° Northwest 235 270 5,900 -1,620 Descending Atlanta Center
08:04PM 33.5522 -84.0961 337° Northwest 240 276 4,300 -1,140 Descending Atlanta Center
08:06PM 33.6167 -84.1833 312° West 226 260 3,000 -480 Descending Atlanta TRACON
08:07PM 33.6167 -84.2500 270° West 171 197 3,100 60 Climbing Atlanta TRACON